Time;durP1;ratioP1;P1;durP2;ratioP2;P2;SDS_P1;SDS_P2;PMS_P1;PMS_P2;Temp;Humidity;BMP_temperature;BMP_pressure;BME280_temperature;BME280_humidity;BME280_pressure;Samples;Min_cycle;Max_cycle;Signal;HPM_P1;HPM_P2
2021/12/30 00:01:16;;;;;;;1.30;1.20;;;18.30;37.70;;;;;;5069167;28;20412;-66
2021/12/30 00:03:43;;;;;;;1.00;0.80;;;18.30;37.70;;;;;;5068627;28;20510;-66
2021/12/30 00:06:09;;;;;;;1.50;1.10;;;18.30;37.70;;;;;;5069555;28;20834;-66
2021/12/30 00:08:35;;;;;;;1.10;1.00;;;18.30;37.70;;;;;;5069141;28;20512;-66
2021/12/30 00:11:01;;;;;;;1.37;1.27;;;18.30;37.70;;;;;;5069096;28;20466;-66
2021/12/30 00:13:28;;;;;;;1.20;1.10;;;18.30;37.70;;;;;;5051114;28;20473;-66
2021/12/30 00:15:54;;;;;;;2.00;1.60;;;18.30;37.70;;;;;;5069115;28;20637;-66
2021/12/30 00:18:19;;;;;;;1.20;1.10;;;18.30;37.70;;;;;;5069192;28;20434;-66
2021/12/30 00:20:46;;;;;;;1.20;1.00;;;18.30;37.70;;;;;;5068034;28;20301;-66
2021/12/30 00:23:12;;;;;;;1.60;1.20;;;18.30;37.70;;;;;;5068805;28;20689;-66
2021/12/30 00:25:40;;;;;;;1.20;1.10;;;18.30;37.70;;;;;;5069601;28;20466;-66
2021/12/30 00:28:09;;;;;;;1.30;1.20;;;18.30;37.70;;;;;;5066522;28;20464;-66
2021/12/30 00:30:35;;;;;;;0.90;0.90;;;18.30;37.70;;;;;;5069184;28;20460;-66
2021/12/30 00:33:01;;;;;;;1.20;1.10;;;18.30;37.70;;;;;;5068924;28;20442;-66
2021/12/30 00:35:26;;;;;;;1.43;1.33;;;18.30;37.70;;;;;;5069122;28;20651;-66
2021/12/30 00:37:52;;;;;;;1.30;1.20;;;18.30;37.70;;;;;;5067090;28;20450;-66
2021/12/30 00:40:18;;;;;;;1.27;1.00;;;18.30;37.70;;;;;;5068605;28;20218;-66
2021/12/30 00:42:43;;;;;;;1.30;1.20;;;18.30;37.70;;;;;;5068823;28;20229;-66
2021/12/30 00:45:09;;;;;;;1.20;1.10;;;18.30;37.70;;;;;;5069281;28;20214;-66
2021/12/30 00:47:35;;;;;;;1.10;1.00;;;18.30;37.70;;;;;;5068866;28;20539;-66
2021/12/30 00:50:01;;;;;;;2.03;1.33;;;18.30;37.70;;;;;;5068367;28;20694;-66
2021/12/30 00:52:26;;;;;;;1.20;1.10;;;18.30;37.70;;;;;;5068615;28;20315;-66
2021/12/30 00:54:52;;;;;;;1.30;1.20;;;18.30;37.70;;;;;;5068413;28;20311;-66
2021/12/30 00:57:18;;;;;;;1.40;1.10;;;18.30;37.70;;;;;;5068785;28;20214;-66
2021/12/30 00:59:44;;;;;;;1.53;1.20;;;18.30;37.70;;;;;;5068860;28;20997;-66
2021/12/30 01:02:10;;;;;;;1.40;1.30;;;18.30;37.70;;;;;;5069091;28;20558;-66
2021/12/30 01:04:35;;;;;;;1.37;1.13;;;18.30;37.70;;;;;;5068718;28;20241;-66
2021/12/30 01:07:01;;;;;;;1.67;1.20;;;18.30;37.70;;;;;;5069382;28;20249;-66
2021/12/30 01:09:26;;;;;;;1.70;1.20;;;18.30;37.70;;;;;;5072213;28;20214;-66
2021/12/30 01:11:54;;;;;;;1.93;1.37;;;18.30;37.70;;;;;;5071950;28;20253;-66
2021/12/30 01:14:24;;;;;;;1.13;1.03;;;18.30;37.70;;;;;;5069414;28;20533;-66
2021/12/30 01:16:54;;;;;;;1.20;1.10;;;18.30;37.70;;;;;;5072128;28;20418;-66
2021/12/30 01:21:47;;;;;;;1.77;1.20;;;18.30;37.70;;;;;;5072028;28;20451;-66
2021/12/30 01:24:13;;;;;;;1.23;1.10;;;18.30;37.70;;;;;;5071982;28;20905;-66
2021/12/30 01:26:39;;;;;;;1.23;1.13;;;18.30;37.70;;;;;;5072283;28;20441;-66
2021/12/30 01:29:05;;;;;;;1.30;1.20;;;18.30;37.70;;;;;;5071601;28;20229;-66
2021/12/30 01:31:30;;;;;;;1.90;1.20;;;18.30;37.70;;;;;;5071668;28;20617;-66
2021/12/30 01:33:56;;;;;;;1.67;1.33;;;18.30;37.70;;;;;;5071708;28;20717;-66
2021/12/30 01:36:22;;;;;;;1.30;1.20;;;18.30;37.70;;;;;;5071968;28;20594;-66
2021/12/30 01:38:49;;;;;;;1.30;1.20;;;18.30;37.70;;;;;;5071772;28;20241;-66
2021/12/30 01:41:15;;;;;;;1.13;1.00;;;18.30;37.70;;;;;;5071254;28;20496;-66
2021/12/30 01:43:41;;;;;;;1.40;1.20;;;18.30;37.70;;;;;;5072337;28;20425;-66
2021/12/30 01:46:08;;;;;;;1.70;1.20;;;18.30;37.70;;;;;;5071572;28;20447;-66
2021/12/30 01:48:34;;;;;;;1.63;1.20;;;18.30;37.70;;;;;;5069069;28;20279;-66
2021/12/30 01:51:01;;;;;;;1.50;1.30;;;18.30;37.70;;;;;;5071373;28;20451;-66
2021/12/30 01:53:27;;;;;;;1.20;1.10;;;18.30;37.70;;;;;;5071505;28;20530;-66
2021/12/30 01:55:53;;;;;;;1.20;1.10;;;18.30;37.70;;;;;;5071295;28;20794;-66
2021/12/30 01:58:20;;;;;;;1.40;1.20;;;18.30;37.70;;;;;;5069061;28;20424;-66
2021/12/30 02:00:48;;;;;;;1.37;1.27;;;18.30;37.70;;;;;;5071307;28;20443;-66
2021/12/30 02:03:14;;;;;;;1.07;1.00;;;18.30;37.70;;;;;;5071044;28;20457;-66
2021/12/30 02:05:40;;;;;;;1.50;1.40;;;18.30;38.50;;;;;;5071560;28;20459;-66
2021/12/30 02:08:12;;;;;;;1.80;1.20;;;18.30;37.70;;;;;;5070072;28;20454;-66
2021/12/30 02:10:40;;;;;;;1.40;1.13;;;18.30;37.70;;;;;;5068823;28;20409;-66
2021/12/30 02:13:06;;;;;;;1.50;1.40;;;18.30;37.70;;;;;;5069816;28;20435;-66
2021/12/30 02:15:32;;;;;;;1.20;1.10;;;18.30;37.70;;;;;;5069012;28;20470;-66
2021/12/30 02:17:59;;;;;;;1.20;1.10;;;18.30;37.70;;;;;;5070815;28;20438;-66
2021/12/30 02:20:45;;;;;;;1.70;1.20;;;18.30;37.70;;;;;;5070932;28;20241;-66
2021/12/30 02:23:13;;;;;;;1.20;1.10;;;18.30;37.70;;;;;;5070126;28;20483;-66
2021/12/30 02:25:38;;;;;;;1.33;1.20;;;18.30;37.70;;;;;;5071194;28;20418;-66
2021/12/30 02:28:10;;;;;;;1.87;1.20;;;18.30;37.70;;;;;;5070648;28;20506;-66
2021/12/30 02:30:37;;;;;;;1.93;1.60;;;18.30;37.70;;;;;;5070818;28;20452;-66
2021/12/30 02:33:03;;;;;;;1.13;1.03;;;18.30;37.70;;;;;;5070702;28;20451;-66
2021/12/30 02:35:29;;;;;;;1.63;1.53;;;18.20;37.60;;;;;;5070716;28;20439;-66
2021/12/30 02:37:55;;;;;;;1.23;1.13;;;18.20;37.60;;;;;;5070338;28;20422;-66
2021/12/30 02:40:26;;;;;;;1.40;1.00;;;18.30;37.70;;;;;;5070580;28;20417;-66
2021/12/30 02:42:52;;;;;;;1.10;1.00;;;18.30;37.70;;;;;;5069551;28;20217;-66
2021/12/30 02:45:18;;;;;;;1.27;1.17;;;18.20;37.60;;;;;;5070617;28;20489;-66
2021/12/30 02:47:43;;;;;;;2.03;1.00;;;18.30;38.50;;;;;;5070324;28;20245;-66
2021/12/30 02:50:09;;;;;;;1.40;1.30;;;18.30;37.70;;;;;;5070997;28;20213;-66
2021/12/30 02:52:35;;;;;;;1.30;1.20;;;18.20;37.60;;;;;;5070133;28;20650;-66
2021/12/30 02:55:00;;;;;;;1.10;1.00;;;18.30;37.70;;;;;;5070077;28;20308;-66
2021/12/30 02:57:26;;;;;;;1.30;1.20;;;18.20;37.60;;;;;;5070290;28;20310;-66
2021/12/30 02:59:52;;;;;;;1.30;1.20;;;18.20;37.60;;;;;;5070366;28;20222;-66
2021/12/30 03:02:17;;;;;;;1.17;1.07;;;18.30;37.70;;;;;;5070007;28;20217;-66
2021/12/30 03:04:43;;;;;;;2.27;1.33;;;18.30;37.70;;;;;;5070112;28;20241;-66
2021/12/30 03:07:09;;;;;;;1.43;1.20;;;18.20;37.60;;;;;;5070311;28;20245;-66
2021/12/30 03:09:35;;;;;;;1.20;1.10;;;18.30;37.70;;;;;;5052336;28;20262;-66
2021/12/30 03:12:00;;;;;;;1.00;0.90;;;18.20;37.60;;;;;;5069651;28;20602;-66
2021/12/30 03:14:28;;;;;;;1.20;1.10;;;18.20;37.60;;;;;;5069835;28;20413;-66
2021/12/30 03:16:54;;;;;;;1.13;1.00;;;18.30;37.70;;;;;;5068311;28;20218;-66
2021/12/30 03:19:19;;;;;;;1.73;1.03;;;18.30;37.70;;;;;;5069888;28;20445;-66
2021/12/30 03:21:45;;;;;;;1.40;1.30;;;18.20;37.60;;;;;;5069820;28;20226;-66
2021/12/30 03:24:11;;;;;;;1.13;1.03;;;18.30;37.70;;;;;;5069951;28;20217;-66
2021/12/30 03:26:37;;;;;;;1.10;1.00;;;18.30;37.70;;;;;;5069756;28;20221;-66
2021/12/30 03:29:04;;;;;;;1.13;1.03;;;18.30;37.70;;;;;;5065930;28;20690;-66
2021/12/30 03:31:30;;;;;;;1.00;0.90;;;18.30;37.70;;;;;;5069451;28;20221;-66
2021/12/30 03:33:56;;;;;;;1.00;0.90;;;18.30;37.70;;;;;;5069830;28;20451;-66
2021/12/30 03:36:21;;;;;;;1.10;1.00;;;18.20;37.60;;;;;;5069663;28;20409;-66
2021/12/30 03:38:50;;;;;;;2.10;1.10;;;18.20;37.60;;;;;;5069471;28;20681;-66
2021/12/30 03:41:18;;;;;;;1.30;1.20;;;18.20;37.60;;;;;;5069500;28;20659;-66
2021/12/30 03:43:44;;;;;;;1.13;1.00;;;18.20;37.60;;;;;;5069677;28;20442;-66
2021/12/30 03:46:10;;;;;;;1.10;1.00;;;18.20;37.70;;;;;;5069678;28;20420;-66
2021/12/30 03:48:43;;;;;;;1.53;1.03;;;18.20;37.60;;;;;;5069179;28;20429;-66
2021/12/30 03:51:14;;;;;;;1.10;1.00;;;18.30;37.70;;;;;;5069659;28;20216;-66
2021/12/30 03:53:42;;;;;;;1.33;1.00;;;18.30;37.70;;;;;;5070022;28;20420;-66
2021/12/30 03:56:10;;;;;;;1.00;0.90;;;18.20;38.40;;;;;;5069404;28;20401;-66
2021/12/30 03:58:36;;;;;;;1.00;0.90;;;18.30;37.70;;;;;;5069477;28;20414;-66
2021/12/30 04:01:03;;;;;;;1.20;1.10;;;18.20;37.60;;;;;;5069103;28;20504;-66
2021/12/30 04:03:29;;;;;;;1.20;1.00;;;18.20;37.60;;;;;;5068953;28;20437;-66
2021/12/30 04:05:55;;;;;;;1.10;1.00;;;18.20;37.60;;;;;;5069318;28;20417;-66
2021/12/30 04:08:20;;;;;;;2.20;1.00;;;18.20;37.60;;;;;;5069274;28;20222;-66
2021/12/30 04:10:46;;;;;;;1.20;1.00;;;18.20;37.60;;;;;;5069222;28;20421;-66
2021/12/30 04:13:13;;;;;;;1.20;1.10;;;18.20;37.60;;;;;;5069261;28;20221;-66
2021/12/30 04:15:38;;;;;;;1.10;1.00;;;18.20;37.60;;;;;;5069818;28;20267;-66
2021/12/30 04:18:04;;;;;;;1.37;1.00;;;18.20;37.60;;;;;;5069177;28;20470;-66
2021/12/30 04:20:30;;;;;;;1.00;0.90;;;18.20;37.60;;;;;;5069041;28;20245;-66
2021/12/30 04:22:56;;;;;;;0.97;0.83;;;18.20;37.60;;;;;;5068814;28;20250;-66
2021/12/30 04:25:21;;;;;;;0.90;0.73;;;18.20;37.60;;;;;;5068941;28;20218;-66
2021/12/30 04:27:47;;;;;;;1.43;1.20;;;18.20;37.60;;;;;;5068912;28;20287;-66
2021/12/30 04:30:14;;;;;;;1.10;1.00;;;18.20;37.60;;;;;;5067329;28;20597;-66
2021/12/30 04:32:40;;;;;;;1.10;1.00;;;18.20;37.60;;;;;;5069481;28;20556;-66
2021/12/30 04:35:07;;;;;;;1.00;0.90;;;18.20;37.60;;;;;;5066370;28;20455;-66
2021/12/30 04:37:34;;;;;;;1.30;0.90;;;18.20;37.60;;;;;;5068983;28;20240;-66
2021/12/30 04:40:01;;;;;;;1.03;0.93;;;18.20;37.60;;;;;;5068639;28;20439;-67
2021/12/30 04:42:27;;;;;;;1.00;0.90;;;18.20;37.60;;;;;;5070641;28;20421;-66
2021/12/30 04:44:52;;;;;;;1.10;1.00;;;18.30;37.70;;;;;;5072612;28;20487;-66
2021/12/30 04:47:19;;;;;;;1.53;1.20;;;18.20;37.60;;;;;;5072520;28;20236;-66
2021/12/30 04:49:45;;;;;;;0.80;0.80;;;18.20;37.60;;;;;;5072615;28;20214;-66
2021/12/30 04:52:11;;;;;;;1.47;0.90;;;18.30;37.70;;;;;;5072887;28;20438;-66
2021/12/30 04:54:36;;;;;;;0.80;0.80;;;18.20;37.60;;;;;;5072513;28;20664;-66
2021/12/30 04:57:02;;;;;;;1.37;0.90;;;18.20;37.60;;;;;;5072185;28;20221;-66
2021/12/30 04:59:28;;;;;;;1.07;0.97;;;18.20;37.60;;;;;;5072744;28;20259;-66
2021/12/30 05:01:53;;;;;;;1.47;0.90;;;18.20;37.60;;;;;;5072347;28;20313;-66
2021/12/30 05:04:19;;;;;;;1.17;0.77;;;18.20;37.60;;;;;;5072305;28;20613;-66
2021/12/30 05:06:45;;;;;;;0.83;0.80;;;18.20;37.60;;;;;;5072232;28;20735;-66
2021/12/30 05:09:10;;;;;;;0.93;0.90;;;18.20;37.60;;;;;;5072789;28;20229;-66
2021/12/30 05:11:40;;;;;;;1.07;0.97;;;18.20;37.70;;;;;;5072193;28;20630;-66
2021/12/30 05:14:06;;;;;;;1.17;0.90;;;18.20;37.70;;;;;;5070988;28;20213;-66
2021/12/30 05:16:32;;;;;;;1.03;0.90;;;18.20;37.70;;;;;;5072094;28;20447;-66
2021/12/30 05:18:58;;;;;;;0.90;0.80;;;18.20;37.70;;;;;;5071937;28;20511;-66
2021/12/30 05:21:24;;;;;;;0.80;0.77;;;18.20;37.70;;;;;;5072017;28;20681;-66
2021/12/30 05:23:50;;;;;;;1.00;0.90;;;18.20;37.60;;;;;;5071971;28;20224;-66
2021/12/30 05:26:16;;;;;;;0.80;0.80;;;18.20;37.70;;;;;;5071906;28;20414;-66
2021/12/30 05:28:42;;;;;;;1.07;0.97;;;18.20;37.70;;;;;;5071833;28;20264;-66
2021/12/30 05:31:08;;;;;;;0.80;0.70;;;18.20;37.70;;;;;;5072245;28;20442;-66
2021/12/30 05:33:34;;;;;;;0.80;0.70;;;18.20;37.60;;;;;;5071985;28;20420;-66
2021/12/30 05:35:59;;;;;;;1.10;1.00;;;18.20;37.70;;;;;;5070845;28;20213;-66
2021/12/30 05:38:25;;;;;;;1.00;0.80;;;18.30;37.70;;;;;;5071794;28;20248;-66
2021/12/30 05:40:51;;;;;;;1.00;0.90;;;18.20;37.60;;;;;;5069570;28;20643;-66
2021/12/30 05:43:17;;;;;;;0.90;0.73;;;18.20;37.60;;;;;;5071611;28;20243;-66
2021/12/30 05:45:43;;;;;;;1.00;0.90;;;18.30;37.70;;;;;;5071554;28;20463;-66
2021/12/30 05:48:09;;;;;;;1.00;0.90;;;18.30;37.70;;;;;;5071676;28;20461;-66
2021/12/30 05:50:35;;;;;;;0.80;0.77;;;18.30;37.70;;;;;;5071541;28;20297;-66
2021/12/30 05:53:02;;;;;;;0.80;0.80;;;18.30;37.70;;;;;;5071097;28;20634;-66
2021/12/30 05:55:31;;;;;;;0.97;0.80;;;18.30;37.70;;;;;;5071642;28;20429;-66
2021/12/30 05:57:57;;;;;;;0.90;0.80;;;18.30;37.70;;;;;;5071223;28;20449;-66
2021/12/30 06:00:25;;;;;;;1.13;0.83;;;18.30;37.70;;;;;;5071530;28;20435;-66
2021/12/30 06:02:51;;;;;;;0.80;0.80;;;18.30;37.70;;;;;;5071173;28;20854;-66
2021/12/30 06:05:17;;;;;;;0.77;0.67;;;18.30;37.70;;;;;;5071080;28;20447;-66
2021/12/30 06:07:43;;;;;;;0.93;0.80;;;18.30;37.70;;;;;;5071055;28;20234;-66
2021/12/30 06:10:09;;;;;;;0.80;0.70;;;18.30;37.70;;;;;;5071603;28;20209;-66
2021/12/30 06:12:34;;;;;;;0.70;0.70;;;18.30;37.70;;;;;;5071266;28;20951;-66
2021/12/30 06:15:00;;;;;;;0.80;0.70;;;18.30;37.70;;;;;;5071188;28;20403;-66
2021/12/30 06:17:26;;;;;;;0.70;0.70;;;18.30;37.70;;;;;;5069346;28;20347;-66
2021/12/30 06:19:51;;;;;;;0.90;0.80;;;18.30;37.70;;;;;;5070818;28;20257;-66
2021/12/30 06:22:17;;;;;;;0.80;0.80;;;18.30;37.70;;;;;;5070726;28;20205;-66
2021/12/30 06:24:43;;;;;;;0.90;0.80;;;18.30;37.70;;;;;;5071017;28;20228;-66
2021/12/30 06:27:10;;;;;;;0.73;0.73;;;18.30;37.70;;;;;;5071304;28;20213;-66
2021/12/30 06:29:37;;;;;;;0.77;0.60;;;18.30;37.70;;;;;;5070842;28;20439;-66
2021/12/30 06:32:04;;;;;;;0.83;0.70;;;18.30;37.80;;;;;;5070481;28;20764;-66
2021/12/30 06:34:29;;;;;;;0.90;0.80;;;18.30;37.80;;;;;;5070724;28;20443;-66
2021/12/30 06:36:55;;;;;;;0.73;0.73;;;18.30;37.80;;;;;;5070415;28;20929;-66
2021/12/30 06:39:21;;;;;;;0.80;0.70;;;18.30;37.80;;;;;;5070472;28;20214;-66
2021/12/30 06:41:47;;;;;;;1.00;0.90;;;18.30;37.80;;;;;;5070216;28;20234;-66
2021/12/30 06:44:12;;;;;;;0.80;0.80;;;18.30;37.80;;;;;;5070721;28;20925;-66
2021/12/30 06:46:38;;;;;;;0.70;0.70;;;18.30;37.90;;;;;;5071073;28;20528;-66
2021/12/30 06:49:09;;;;;;;1.00;0.80;;;18.30;37.90;;;;;;5070254;28;20550;-66
2021/12/30 06:51:35;;;;;;;1.07;0.80;;;18.30;37.90;;;;;;5070359;28;20658;-66
2021/12/30 06:54:05;;;;;;;0.70;0.70;;;18.30;37.90;;;;;;5069929;28;20438;-66
2021/12/30 06:56:31;;;;;;;0.87;0.80;;;18.30;37.90;;;;;;5070247;28;20446;-66
2021/12/30 06:58:56;;;;;;;0.93;0.70;;;18.30;38.00;;;;;;5070114;28;20447;-66
2021/12/30 07:01:22;;;;;;;0.83;0.80;;;18.30;37.90;;;;;;5070312;28;20414;-66
2021/12/30 07:03:48;;;;;;;0.70;0.60;;;18.30;37.90;;;;;;5069734;28;20237;-66
2021/12/30 07:06:13;;;;;;;0.80;0.70;;;18.30;37.90;;;;;;5069458;28;20213;-66
2021/12/30 07:08:40;;;;;;;0.70;0.70;;;18.30;37.90;;;;;;5069722;28;20229;-66
2021/12/30 07:11:06;;;;;;;0.70;0.60;;;18.30;37.90;;;;;;5067368;28;20218;-66
2021/12/30 07:13:31;;;;;;;0.60;0.60;;;18.30;38.00;;;;;;5069748;28;20813;-66
2021/12/30 07:15:57;;;;;;;0.60;0.60;;;18.30;38.00;;;;;;5069903;28;20225;-66
2021/12/30 07:18:23;;;;;;;0.77;0.67;;;18.30;38.00;;;;;;5070059;28;20267;-66
2021/12/30 07:20:48;;;;;;;0.77;0.70;;;18.30;37.90;;;;;;5069903;28;20214;-66
2021/12/30 07:23:15;;;;;;;0.70;0.60;;;18.30;37.90;;;;;;5069665;28;20666;-66
2021/12/30 07:25:41;;;;;;;0.70;0.70;;;18.20;38.00;;;;;;5070410;28;20245;-66
2021/12/30 07:28:07;;;;;;;0.80;0.60;;;18.30;38.00;;;;;;5069490;28;20458;-66
2021/12/30 07:30:33;;;;;;;0.70;0.60;;;18.30;38.00;;;;;;5069533;28;20458;-66
2021/12/30 07:33:00;;;;;;;0.80;0.80;;;18.30;38.00;;;;;;5069634;28;20759;-66
2021/12/30 07:35:26;;;;;;;0.80;0.60;;;18.30;38.00;;;;;;5069642;28;20326;-66
2021/12/30 07:37:52;;;;;;;0.80;0.70;;;18.30;38.10;;;;;;5069363;28;20438;-66
2021/12/30 07:40:18;;;;;;;0.70;0.60;;;18.30;38.10;;;;;;5069772;28;20979;-66
2021/12/30 07:42:44;;;;;;;0.70;0.60;;;18.30;38.10;;;;;;5069636;28;20566;-66
2021/12/30 07:45:11;;;;;;;0.60;0.60;;;18.30;38.20;;;;;;5070071;28;20439;-66
2021/12/30 07:47:38;;;;;;;0.80;0.70;;;18.30;38.10;;;;;;5069276;28;20229;-66
2021/12/30 07:50:05;;;;;;;0.60;0.53;;;18.30;38.10;;;;;;5069355;28;20514;-66
2021/12/30 07:52:30;;;;;;;0.70;0.70;;;18.30;38.10;;;;;;5069490;28;20947;-66
2021/12/30 07:54:56;;;;;;;0.70;0.60;;;18.20;38.10;;;;;;5069513;28;20534;-66
2021/12/30 07:57:22;;;;;;;0.70;0.63;;;18.30;38.20;;;;;;5069402;28;20304;-66
2021/12/30 07:59:52;;;;;;;0.60;0.50;;;18.30;38.20;;;;;;5069288;28;20221;-66
2021/12/30 08:02:18;;;;;;;0.80;0.70;;;18.20;38.10;;;;;;5069248;28;20539;-66
2021/12/30 08:04:44;;;;;;;0.70;0.67;;;18.20;38.10;;;;;;5069131;28;20448;-66
2021/12/30 08:07:10;;;;;;;0.60;0.60;;;18.30;38.30;;;;;;5069452;28;20525;-66
2021/12/30 08:09:36;;;;;;;0.60;0.60;;;18.30;38.20;;;;;;5069249;28;20228;-66
2021/12/30 08:12:02;;;;;;;0.80;0.67;;;18.30;39.10;;;;;;5068940;28;20233;-66
2021/12/30 08:14:28;;;;;;;0.60;0.60;;;18.30;38.20;;;;;;5069182;28;20216;-66
2021/12/30 08:16:54;;;;;;;0.80;0.80;;;18.20;38.20;;;;;;5070146;28;20526;-66
2021/12/30 08:19:19;;;;;;;0.80;0.67;;;18.20;38.20;;;;;;5073406;28;20417;-66
2021/12/30 08:21:45;;;;;;;0.60;0.50;;;18.20;38.20;;;;;;5072974;28;20425;-66
2021/12/30 08:24:12;;;;;;;0.60;0.60;;;18.20;38.20;;;;;;5055758;28;20216;-66
2021/12/30 08:26:39;;;;;;;0.70;0.60;;;18.20;38.20;;;;;;5073401;28;20562;-66
2021/12/30 08:29:05;;;;;;;0.90;0.57;;;18.20;39.10;;;;;;5072768;28;20485;-66
2021/12/30 08:31:32;;;;;;;0.77;0.60;;;18.20;38.20;;;;;;5072901;28;20420;-66
2021/12/30 08:33:58;;;;;;;0.70;0.60;;;18.20;38.30;;;;;;5072879;28;20477;-66
2021/12/30 08:36:23;;;;;;;0.63;0.50;;;18.20;38.30;;;;;;5072731;28;20511;-66
2021/12/30 08:38:49;;;;;;;0.70;0.60;;;18.20;38.30;;;;;;5072662;28;20632;-66
2021/12/30 08:41:15;;;;;;;0.63;0.63;;;18.20;38.30;;;;;;5072864;28;20217;-66
2021/12/30 08:43:41;;;;;;;0.80;0.80;;;18.20;38.30;;;;;;5073331;28;20283;-66
2021/12/30 08:46:07;;;;;;;0.70;0.63;;;18.20;38.30;;;;;;5072566;28;20529;-66
2021/12/30 08:48:32;;;;;;;0.70;0.60;;;18.20;38.30;;;;;;5054495;28;20245;-66
2021/12/30 08:50:58;;;;;;;0.60;0.50;;;18.20;38.30;;;;;;5072347;28;20304;-66
2021/12/30 08:53:25;;;;;;;0.80;0.70;;;18.20;38.30;;;;;;5072552;28;20370;-67
2021/12/30 08:55:52;;;;;;;0.70;0.70;;;18.20;38.30;;;;;;5072396;28;20303;-66
2021/12/30 08:58:18;;;;;;;0.60;0.60;;;18.20;38.30;;;;;;5072476;28;20406;-66
2021/12/30 09:00:46;;;;;;;0.90;0.70;;;18.20;38.40;;;;;;5072356;28;20875;-66
2021/12/30 09:03:13;;;;;;;0.70;0.70;;;18.20;38.30;;;;;;5072112;28;20366;-66
2021/12/30 09:05:39;;;;;;;0.80;0.67;;;18.20;38.40;;;;;;5072863;28;20413;-66
2021/12/30 09:08:06;;;;;;;0.60;0.60;;;18.20;38.40;;;;;;5072293;28;20971;-66
2021/12/30 09:10:37;;;;;;;0.77;0.60;;;18.20;38.30;;;;;;5071351;28;20569;-66
2021/12/30 09:13:03;;;;;;;0.80;0.80;;;18.20;38.30;;;;;;5071082;28;20437;-66
2021/12/30 09:15:29;;;;;;;0.60;0.50;;;18.20;38.30;;;;;;5072083;28;20453;-66
2021/12/30 09:17:55;;;;;;;0.70;0.60;;;18.20;38.40;;;;;;5070712;28;20225;-66
2021/12/30 09:20:21;;;;;;;0.70;0.60;;;18.20;38.40;;;;;;5068919;28;20956;-66
2021/12/30 09:22:48;;;;;;;0.60;0.50;;;18.20;38.40;;;;;;5071820;28;20442;-66
2021/12/30 09:25:16;;;;;;;0.70;0.60;;;18.20;38.40;;;;;;5072052;28;20221;-66
2021/12/30 09:27:42;;;;;;;0.70;0.60;;;18.20;38.50;;;;;;5069656;28;20553;-66
2021/12/30 09:30:11;;;;;;;0.70;0.60;;;18.20;38.40;;;;;;5072220;28;20521;-66
2021/12/30 09:32:37;;;;;;;1.23;0.50;;;18.20;38.40;;;;;;5071114;28;20222;-66
2021/12/30 09:35:03;;;;;;;0.60;0.60;;;18.20;38.40;;;;;;5071931;28;20526;-67
2021/12/30 09:37:29;;;;;;;0.80;0.60;;;18.20;38.40;;;;;;5071724;28;20670;-66
2021/12/30 09:39:55;;;;;;;0.70;0.70;;;18.20;38.40;;;;;;5071801;28;20541;-66
2021/12/30 09:42:20;;;;;;;0.70;0.60;;;18.20;38.50;;;;;;5071673;28;20670;-66
2021/12/30 09:44:46;;;;;;;0.70;0.60;;;18.20;38.50;;;;;;5071752;28;20454;-66
2021/12/30 09:47:12;;;;;;;0.60;0.57;;;18.20;38.50;;;;;;5070871;28;20214;-66
2021/12/30 09:49:38;;;;;;;0.60;0.60;;;18.20;38.50;;;;;;5068241;28;20214;-66
2021/12/30 09:52:04;;;;;;;0.70;0.70;;;18.20;38.50;;;;;;5052817;28;20266;-66
2021/12/30 09:54:30;;;;;;;0.90;0.70;;;18.20;38.50;;;;;;5071038;28;20221;-66
2021/12/30 09:56:56;;;;;;;0.60;0.57;;;18.20;38.50;;;;;;5069462;28;20445;-66
2021/12/30 09:59:26;;;;;;;0.70;0.57;;;18.20;38.50;;;;;;5070756;28;20450;-66
2021/12/30 10:01:51;;;;;;;0.73;0.57;;;18.20;38.50;;;;;;5070470;28;20260;-66
2021/12/30 10:04:18;;;;;;;0.70;0.67;;;18.20;38.60;;;;;;5053210;28;20516;-67
2021/12/30 10:06:47;;;;;;;0.60;0.60;;;18.20;38.50;;;;;;5070777;28;20225;-66
2021/12/30 10:09:16;;;;;;;0.70;0.60;;;18.20;38.60;;;;;;5071633;28;20437;-66
2021/12/30 10:11:51;;;;;;;0.60;0.60;;;18.20;38.60;;;;;;5053486;28;20416;-66
2021/12/30 10:14:37;;;;;;;0.80;0.60;;;18.20;38.60;;;;;;5069232;28;20445;-66
2021/12/30 10:17:26;;;;;;;0.70;0.60;;;18.20;38.60;;;;;;5051951;28;20543;-66
2021/12/30 10:19:53;;;;;;;0.57;0.50;;;18.20;38.60;;;;;;5069879;28;20417;-67
2021/12/30 10:22:22;;;;;;;0.70;0.60;;;18.20;38.60;;;;;;5067873;28;20451;-66
2021/12/30 10:24:49;;;;;;;0.60;0.50;;;18.20;38.60;;;;;;5052753;28;20451;-66
2021/12/30 10:27:29;;;;;;;0.60;0.50;;;18.20;38.60;;;;;;5070876;28;20453;-66
2021/12/30 10:29:56;;;;;;;0.63;0.53;;;18.20;38.60;;;;;;5070982;28;20831;-66
2021/12/30 10:32:26;;;;;;;0.63;0.50;;;18.20;38.60;;;;;;5071097;28;20409;-66
2021/12/30 10:35:14;;;;;;;0.70;0.50;;;18.20;38.60;;;;;;5070774;28;20442;-66
2021/12/30 10:37:45;;;;;;;0.70;0.50;;;18.20;38.60;;;;;;5069110;28;20457;-66
2021/12/30 10:40:29;;;;;;;0.70;0.70;;;18.20;38.60;;;;;;5068828;28;20442;-66
2021/12/30 10:43:17;;;;;;;0.60;0.57;;;18.20;38.70;;;;;;5070184;28;20526;-66
2021/12/30 10:45:42;;;;;;;0.60;0.60;;;18.20;38.70;;;;;;5069264;28;20526;-66
2021/12/30 10:48:09;;;;;;;0.70;0.60;;;18.20;38.70;;;;;;5070893;28;20541;-66
2021/12/30 10:50:35;;;;;;;0.70;0.60;;;18.20;38.70;;;;;;5052673;28;20209;-66
2021/12/30 10:53:00;;;;;;;0.60;0.50;;;18.20;38.70;;;;;;5069928;28;20432;-66
2021/12/30 10:55:26;;;;;;;0.70;0.60;;;18.20;38.70;;;;;;5070328;28;20605;-66
2021/12/30 10:57:53;;;;;;;0.60;0.50;;;18.20;38.70;;;;;;5069546;28;20260;-66
2021/12/30 11:00:31;;;;;;;0.70;0.60;;;18.20;38.70;;;;;;5070381;28;20304;-66
2021/12/30 11:03:19;;;;;;;0.60;0.50;;;18.20;38.80;;;;;;5069734;28;20433;-66
2021/12/30 11:06:11;;;;;;;0.70;0.60;;;18.20;38.80;;;;;;5069531;28;20481;-66
2021/12/30 11:08:36;;;;;;;0.80;0.60;;;18.20;38.80;;;;;;5069665;28;20463;-66
2021/12/30 11:11:22;;;;;;;0.70;0.60;;;18.20;38.80;;;;;;5069809;28;20767;-66
2021/12/30 11:14:07;;;;;;;0.70;0.60;;;18.20;38.70;;;;;;5068927;28;20562;-66
2021/12/30 11:16:50;;;;;;;0.70;0.60;;;18.20;38.80;;;;;;5068593;28;20420;-66
2021/12/30 11:19:17;;;;;;;0.60;0.50;;;18.20;38.70;;;;;;5067685;28;20421;-66
2021/12/30 11:21:44;;;;;;;0.80;0.80;;;18.20;38.70;;;;;;5069932;28;20452;-66
2021/12/30 11:24:10;;;;;;;0.73;0.60;;;18.20;38.70;;;;;;5070351;28;20413;-66
2021/12/30 11:26:37;;;;;;;0.70;0.67;;;18.20;38.70;;;;;;5069758;28;20437;-66
2021/12/30 11:29:05;;;;;;;0.60;0.50;;;18.20;38.70;;;;;;5069263;28;20486;-66
2021/12/30 11:31:32;;;;;;;0.60;0.60;;;18.20;38.80;;;;;;5069576;28;20467;-66
2021/12/30 11:33:59;;;;;;;0.60;0.60;;;18.20;38.70;;;;;;5069391;28;20439;-66
2021/12/30 11:36:29;;;;;;;0.70;0.60;;;18.20;38.80;;;;;;5069772;28;20457;-66
2021/12/30 11:38:58;;;;;;;0.70;0.60;;;18.20;38.70;;;;;;5069562;28;20450;-66
2021/12/30 11:41:28;;;;;;;0.70;0.60;;;18.30;38.80;;;;;;5069680;28;20482;-66
2021/12/30 11:43:54;;;;;;;0.70;0.60;;;18.30;38.80;;;;;;5069355;28;20442;-66
2021/12/30 11:46:38;;;;;;;0.70;0.60;;;18.20;38.70;;;;;;5069277;28;20445;-66
2021/12/30 11:49:08;;;;;;;0.70;0.60;;;18.30;38.80;;;;;;5069319;28;20473;-66
2021/12/30 11:51:46;;;;;;;0.70;0.60;;;18.30;38.90;;;;;;5068965;28;20445;-66
2021/12/30 11:54:40;;;;;;;0.70;0.60;;;18.20;38.80;;;;;;5067520;28;20441;-66
2021/12/30 11:57:25;;;;;;;0.70;0.60;;;18.20;38.80;;;;;;5069097;28;20438;-66
2021/12/30 11:59:54;;;;;;;0.60;0.50;;;18.30;38.90;;;;;;5068485;28;20453;-66
2021/12/30 12:02:33;;;;;;;0.70;0.60;;;18.20;38.80;;;;;;5068991;28;20443;-66
2021/12/30 12:05:37;;;;;;;0.70;0.60;;;18.30;38.90;;;;;;5069252;28;20507;-66
2021/12/30 12:08:09;;;;;;;0.60;0.50;;;18.20;38.80;;;;;;5068416;28;20490;-66
2021/12/30 12:10:35;;;;;;;0.80;0.60;;;18.20;38.80;;;;;;5069415;28;20459;-66
2021/12/30 12:13:33;;;;;;;4.70;0.70;;;18.20;38.80;;;;;;5068449;28;20974;-66
2021/12/30 12:15:59;;;;;;;1.23;0.70;;;18.20;38.80;;;;;;5067841;28;20439;-66
2021/12/30 12:18:25;;;;;;;0.60;0.60;;;18.20;38.80;;;;;;5069064;28;20442;-66
2021/12/30 12:20:53;;;;;;;0.77;0.63;;;18.20;38.80;;;;;;5069018;28;20924;-66
2021/12/30 12:23:36;;;;;;;0.70;0.60;;;18.20;38.90;;;;;;5069109;28;20480;-66
2021/12/30 12:26:06;;;;;;;0.70;0.60;;;18.20;38.90;;;;;;5068447;28;20429;-66
2021/12/30 12:28:32;;;;;;;0.70;0.60;;;18.20;38.90;;;;;;5069008;28;20600;-66
2021/12/30 12:30:58;;;;;;;0.80;0.70;;;18.20;39.00;;;;;;5068915;28;20510;-66
2021/12/30 12:33:27;;;;;;;0.80;0.70;;;18.20;38.90;;;;;;5068960;28;20518;-66
2021/12/30 12:35:54;;;;;;;0.80;0.67;;;18.20;38.90;;;;;;5068788;28;20221;-66
2021/12/30 12:38:44;;;;;;;0.60;0.60;;;18.20;38.90;;;;;;5068818;28;20448;-66
2021/12/30 12:41:20;;;;;;;0.70;0.70;;;18.20;38.90;;;;;;5061357;28;20462;-67
2021/12/30 12:43:51;;;;;;;0.60;0.60;;;18.20;39.00;;;;;;5068099;28;20458;-66
2021/12/30 12:46:16;;;;;;;0.70;0.70;;;18.20;39.00;;;;;;5068879;28;20438;-66
2021/12/30 12:48:52;;;;;;;0.70;0.50;;;18.20;39.00;;;;;;5068831;28;20440;-66
2021/12/30 12:51:27;;;;;;;0.70;0.70;;;18.20;39.00;;;;;;5068515;28;20223;-66
2021/12/30 12:54:05;;;;;;;0.70;0.70;;;18.20;39.00;;;;;;5068827;28;20482;-66